createdAt,value
2023-11-19T00:00:37.116Z,100693.08
2023-11-19T00:05:00.594Z,100682.88
2023-11-19T00:09:05.295Z,100666.13
2023-11-19T00:13:08.749Z,100663.84
2023-11-19T00:17:12.146Z,100668.34
2023-11-19T00:21:15.588Z,100676.81
2023-11-19T00:25:26.786Z,100669.30
2023-11-19T00:29:30.337Z,100668.46
2023-11-19T00:33:33.696Z,100671.06
2023-11-19T00:37:37.257Z,100674.25
2023-11-19T00:41:41.488Z,100676.50
2023-11-19T00:45:45.753Z,100681.88
2023-11-19T00:49:52.305Z,100686.95
2023-11-19T00:53:56.377Z,100676.69
2023-11-19T00:57:59.725Z,100658.48
2023-11-19T01:02:07.684Z,100647.58
2023-11-19T01:06:12.214Z,100642.60
2023-11-19T01:10:17.348Z,100642.17
2023-11-19T01:14:22.276Z,100640.64
2023-11-19T01:18:25.580Z,100631.98
2023-11-19T01:22:29.060Z,100624.06
2023-11-19T01:26:32.445Z,100626.27
2023-11-19T01:30:35.815Z,100615.48
2023-11-19T01:34:39.379Z,100607.89
2023-11-19T01:38:42.977Z,100593.19
2023-11-19T01:42:46.275Z,100579.38
2023-11-19T01:46:51.187Z,100575.98
2023-11-19T01:51:02.643Z,100579.09
2023-11-19T01:55:10.100Z,100586.98
2023-11-19T01:59:15.202Z,100580.48
2023-11-19T02:03:18.942Z,100577.32
2023-11-19T02:07:23.522Z,100570.67
2023-11-19T02:11:30.717Z,100559.34
2023-11-19T02:15:35.165Z,100554.80
2023-11-19T02:19:39.524Z,100547.73
2023-11-19T02:23:42.906Z,100541.04
2023-11-19T02:28:00.981Z,100539.73
2023-11-19T02:32:04.865Z,100534.58
2023-11-19T02:36:09.710Z,100523.30
2023-11-19T02:40:17.414Z,100513.21
2023-11-19T02:44:20.946Z,100516.56
2023-11-19T02:48:24.296Z,100514.89
2023-11-19T02:52:27.892Z,100518.47
2023-11-19T02:56:35.929Z,100514.40
2023-11-19T03:00:49.080Z,100505.83
2023-11-19T03:04:52.676Z,100512.95
2023-11-19T03:08:57.138Z,100503.64
2023-11-19T03:13:03.599Z,100503.23
2023-11-19T03:17:07.997Z,100489.73
2023-11-19T03:21:11.371Z,100487.31
2023-11-19T03:25:14.774Z,100484.89
2023-11-19T03:29:18.174Z,100473.23
2023-11-19T03:33:21.535Z,100466.76
2023-11-19T03:37:25.380Z,100460.82
2023-11-19T03:41:28.767Z,100450.80
2023-11-19T03:45:32.339Z,100455.86
2023-11-19T03:49:35.914Z,100455.84
2023-11-19T03:53:39.393Z,100438.23
2023-11-19T03:57:42.871Z,100433.27
2023-11-19T04:01:46.292Z,100422.50
2023-11-19T04:05:49.753Z,100428.98
2023-11-19T04:09:54.012Z,100424.10
2023-11-19T04:13:57.945Z,100418.29
2023-11-19T04:18:02.105Z,100412.34
2023-11-19T04:22:05.854Z,100412.12
2023-11-19T04:26:11.536Z,100412.13
2023-11-19T04:30:15.747Z,100407.27
2023-11-19T04:34:20.229Z,100396.65
2023-11-19T04:38:23.709Z,100389.44
2023-11-19T04:42:27.136Z,100378.13
2023-11-19T04:46:31.309Z,100374.29
2023-11-19T04:50:34.721Z,100375.98
2023-11-19T04:54:43.864Z,100374.36
2023-11-19T04:58:47.177Z,100356.42
2023-11-19T05:02:50.799Z,100348.76
2023-11-19T05:06:54.706Z,100341.50
2023-11-19T05:10:59.026Z,100339.07
2023-11-19T05:15:02.369Z,100329.89
2023-11-19T05:19:05.756Z,100316.82
2023-11-19T05:23:21.312Z,100310.48
2023-11-19T05:27:25.233Z,100312.19
2023-11-19T05:31:28.699Z,100307.84
2023-11-19T05:35:32.107Z,100300.25
2023-11-19T05:39:35.605Z,100301.94
2023-11-19T05:43:42.010Z,100303.73
2023-11-19T05:47:45.569Z,100309.14
2023-11-19T05:51:49.131Z,100314.77
2023-11-19T05:55:58.488Z,100320.47
2023-11-19T06:00:01.758Z,100314.05
2023-11-19T06:04:15.150Z,100307.98
2023-11-19T06:08:18.582Z,100309.45
2023-11-19T06:12:21.991Z,100305.86
2023-11-19T06:16:26.442Z,100307.98
2023-11-19T06:20:43.426Z,100306.73
2023-11-19T06:24:47.491Z,100300.54
2023-11-19T06:28:50.923Z,100292.73
2023-11-19T06:32:54.383Z,100290.70
2023-11-19T06:36:57.939Z,100290.84
2023-11-19T06:41:01.511Z,100296.67
2023-11-19T06:45:05.197Z,100291.61
2023-11-19T06:49:11.322Z,100289.03
2023-11-19T06:53:14.813Z,100281.91
2023-11-19T06:57:18.264Z,100274.83
2023-11-19T07:01:21.743Z,100268.77
2023-11-19T07:05:25.319Z,100261.14
2023-11-19T07:09:29.062Z,100253.44
2023-11-19T07:13:32.492Z,100256.20
2023-11-19T07:17:36.653Z,100252.41
2023-11-19T07:21:45.238Z,100245.68
2023-11-19T07:25:48.614Z,100239.86
2023-11-19T07:29:53.225Z,100229.66
2023-11-19T07:33:56.930Z,100222.84
2023-11-19T07:38:00.330Z,100223.30
2023-11-19T07:42:04.079Z,100217.37
2023-11-19T07:46:12.489Z,100211.68
2023-11-19T07:50:18.414Z,100215.09
2023-11-19T07:54:22.827Z,100218.74
2023-11-19T07:58:26.313Z,100204.73
2023-11-19T08:02:30.351Z,100197.11
2023-11-19T08:06:34.469Z,100197.55
2023-11-19T08:10:37.980Z,100196.04
2023-11-19T08:14:41.596Z,100185.43
2023-11-19T08:18:45.536Z,100183.17
2023-11-19T08:22:49.760Z,100179.20
2023-11-19T08:31:00.308Z,100175.03
2023-11-19T08:35:04.576Z,100165.73
2023-11-19T08:39:10.003Z,100158.77
2023-11-19T08:43:14.682Z,100158.59
2023-11-19T08:47:22.054Z,100154.61
2023-11-19T08:51:26.640Z,100153.98
2023-11-19T08:55:30.151Z,100142.00
2023-11-19T08:59:33.665Z,100136.89
2023-11-19T09:03:38.424Z,100127.86
2023-11-19T09:07:42.531Z,100121.48
2023-11-19T09:11:46.035Z,100116.58
2023-11-19T09:15:49.520Z,100104.50
2023-11-19T09:19:53.905Z,100096.52
2023-11-19T09:23:57.538Z,100089.19
2023-11-19T09:28:01.471Z,100081.61
2023-11-19T09:32:06.272Z,100080.52
2023-11-19T09:36:15.161Z,100079.70
2023-11-19T09:40:19.612Z,100073.38
2023-11-19T09:44:28.828Z,100069.16
2023-11-19T09:48:34.598Z,100064.73
2023-11-19T09:52:38.080Z,100054.81
2023-11-19T09:56:42.262Z,100047.27
2023-11-19T10:00:50.731Z,100038.88
2023-11-19T10:05:00.925Z,100027.01
2023-11-19T10:09:06.710Z,100018.45
2023-11-19T10:13:10.396Z,100012.98
2023-11-19T10:17:14.388Z,100000.73
2023-11-19T10:21:21.416Z,99993.83
2023-11-19T10:25:30.275Z,99982.45
2023-11-19T10:29:33.686Z,99975.41
2023-11-19T10:33:37.170Z,99968.35
2023-11-19T10:37:40.672Z,99960.89
2023-11-19T10:41:44.098Z,99956.89
2023-11-19T10:45:47.524Z,99958.64
2023-11-19T10:49:51.307Z,99953.08
2023-11-19T10:53:58.456Z,99952.65
2023-11-19T10:59:00.489Z,99944.61
2023-11-19T11:03:17.426Z,99931.60
2023-11-19T11:07:32.416Z,99924.23
2023-11-19T11:11:44.972Z,99919.86
2023-11-19T11:15:49.592Z,99914.20
2023-11-19T11:19:54.540Z,99905.15
2023-11-19T11:24:10.080Z,99895.71
2023-11-19T11:28:54.683Z,99880.95
2023-11-19T11:33:13.198Z,99874.61
2023-11-19T11:37:49.653Z,99864.15
2023-11-19T11:42:20.014Z,99860.88
2023-11-19T11:46:39.435Z,99862.61
2023-11-19T11:51:00.435Z,99852.28
2023-11-19T11:55:25.171Z,99838.99
2023-11-19T11:59:43.855Z,99834.75
2023-11-19T12:03:48.064Z,99829.48
2023-11-19T12:08:08.340Z,99820.21
2023-11-19T12:12:19.565Z,99808.21
2023-11-19T12:16:23.545Z,99798.90
2023-11-19T12:20:34.686Z,99789.56
2023-11-19T12:24:38.672Z,99781.07
2023-11-19T12:28:43.104Z,99779.67
2023-11-19T12:32:47.770Z,99774.30
2023-11-19T12:36:52.994Z,99771.35
2023-11-19T12:41:14.572Z,99768.48
2023-11-19T12:45:18.988Z,99760.52
2023-11-19T12:49:24.795Z,99753.74
2023-11-19T12:53:31.177Z,99748.55
2023-11-19T12:57:44.423Z,99739.02
2023-11-19T13:02:01.866Z,99735.39
2023-11-19T13:06:15.570Z,99729.80
2023-11-19T13:10:21.354Z,99723.05
2023-11-19T13:14:26.120Z,99715.24
2023-11-19T13:18:44.969Z,99706.91
2023-11-19T13:23:03.590Z,99700.64
2023-11-19T13:27:08.062Z,99700.98
2023-11-19T13:31:20.009Z,99705.38
2023-11-19T13:35:25.107Z,99691.49
2023-11-19T13:39:29.062Z,99692.41
2023-11-19T13:43:33.960Z,99684.36
2023-11-19T13:47:38.480Z,99678.48
2023-11-19T13:51:47.277Z,99673.14
2023-11-19T13:55:51.524Z,99668.48
2023-11-19T14:00:01.266Z,99659.89
2023-11-19T14:04:05.016Z,99655.96
2023-11-19T14:08:26.220Z,99652.68
2023-11-19T14:12:36.221Z,99642.36
2023-11-19T14:16:42.803Z,99639.84
2023-11-19T14:20:49.385Z,99638.61
2023-11-19T14:24:53.609Z,99638.94
2023-11-19T14:29:07.149Z,99636.79
2023-11-19T14:33:16.557Z,99636.73
2023-11-19T14:37:22.442Z,99630.89
2023-11-19T15:33:36.121Z,99556.96
2023-11-19T15:38:09.120Z,99552.83
2023-11-19T15:48:02.748Z,99546.35
2023-11-19T15:53:01.057Z,99544.83
2023-11-19T16:18:34.226Z,99521.77
2023-11-19T16:22:42.428Z,99528.86
2023-11-19T16:26:45.987Z,99542.45
2023-11-19T16:30:49.639Z,99544.98
2023-11-19T16:34:53.935Z,99540.20
2023-11-19T16:39:16.134Z,99533.79
2023-11-19T16:43:20.140Z,99531.27
2023-11-19T16:47:23.760Z,99527.30
2023-11-19T16:51:27.316Z,99516.74
2023-11-19T16:55:31.679Z,99508.33
2023-11-19T16:59:35.089Z,99503.03
2023-11-19T17:03:39.702Z,99505.66
2023-11-19T17:07:43.645Z,99508.06
2023-11-19T17:11:47.092Z,99499.11
2023-11-19T17:15:50.502Z,99493.45
2023-11-19T17:19:53.852Z,99494.58
2023-11-19T17:23:57.583Z,99491.19
2023-11-19T17:28:01.204Z,99487.11
2023-11-19T17:32:05.390Z,99481.85
2023-11-19T17:36:09.404Z,99474.35
2023-11-19T17:40:14.874Z,99473.22
2023-11-19T17:44:18.400Z,99466.29
2023-11-19T17:48:22.894Z,99467.98
2023-11-19T17:52:26.318Z,99459.59
2023-11-19T17:56:29.669Z,99450.64
2023-11-19T18:00:33.138Z,99444.43
2023-11-19T18:04:39.359Z,99443.09
2023-11-19T18:08:44.433Z,99442.55
2023-11-19T18:12:47.885Z,99443.15
2023-11-19T18:16:51.437Z,99435.96
2023-11-19T18:20:55.217Z,99429.02
2023-11-19T18:24:59.946Z,99423.98
2023-11-19T18:29:03.379Z,99419.41
2023-11-19T18:33:06.873Z,99411.86
2023-11-19T18:37:10.601Z,99410.54
2023-11-19T18:41:16.865Z,99408.66
2023-11-19T18:45:23.319Z,99405.83
2023-11-19T18:49:28.060Z,99400.18
2023-11-19T18:53:31.828Z,99392.39
2023-11-19T18:57:35.242Z,99387.44
2023-11-19T19:01:39.272Z,99380.75
2023-11-19T19:05:43.274Z,99374.92
2023-11-19T19:09:51.075Z,99373.40
2023-11-19T19:13:54.342Z,99370.83
2023-11-19T19:17:58.385Z,99367.67
2023-11-19T19:22:01.903Z,99368.65
2023-11-19T19:26:05.752Z,99360.27
2023-11-19T19:30:10.057Z,99354.66
2023-11-19T19:34:13.806Z,99357.42
2023-11-19T19:38:17.406Z,99355.46
2023-11-19T19:42:20.900Z,99350.20
2023-11-19T19:46:25.979Z,99343.73
2023-11-19T19:50:29.413Z,99346.08
2023-11-19T19:54:35.429Z,99345.05
2023-11-19T19:58:41.156Z,99346.00
2023-11-19T20:02:45.676Z,99338.81
2023-11-19T20:06:50.817Z,99337.17
2023-11-19T20:10:54.828Z,99334.67
2023-11-19T20:15:01.347Z,99337.05
2023-11-19T20:19:04.860Z,99336.94
2023-11-19T20:23:08.466Z,99335.23
2023-11-19T20:27:17.574Z,99336.14
2023-11-19T20:31:20.955Z,99329.91
2023-11-19T20:35:25.356Z,99327.02
2023-11-19T20:39:29.937Z,99320.54
2023-11-19T20:43:33.210Z,99316.20
2023-11-19T20:47:38.188Z,99310.05
2023-11-19T20:51:41.595Z,99305.97
2023-11-19T20:55:46.465Z,99303.56
2023-11-19T20:59:49.809Z,99299.45
2023-11-19T21:03:53.098Z,99297.55
2023-11-19T21:07:56.444Z,99293.27
2023-11-19T21:12:02.063Z,99285.77
2023-11-19T21:16:08.857Z,99283.04
2023-11-19T21:20:13.241Z,99282.00
2023-11-19T21:24:16.774Z,99276.72
2023-11-19T21:28:20.133Z,99273.74
2023-11-19T21:32:23.453Z,99268.42
2023-11-19T21:36:26.786Z,99263.25
2023-11-19T21:40:30.082Z,99256.77
2023-11-19T21:44:33.386Z,99257.70
2023-11-19T21:48:39.033Z,99253.36
2023-11-19T21:52:42.426Z,99243.13
2023-11-19T21:56:45.756Z,99238.27
2023-11-19T22:00:49.196Z,99237.52
2023-11-19T22:04:53.112Z,99240.40
2023-11-19T22:08:56.506Z,99235.27
2023-11-19T22:12:59.854Z,99230.04
2023-11-19T22:17:04.866Z,99227.49
2023-11-19T22:21:08.170Z,99225.91
2023-11-19T22:25:11.588Z,99218.30
2023-11-19T22:29:14.937Z,99209.67
2023-11-19T22:33:18.261Z,99209.14
2023-11-19T22:37:21.600Z,99206.89
2023-11-19T22:41:25.015Z,99198.05
2023-11-19T22:45:28.510Z,99197.42
2023-11-19T22:49:32.139Z,99198.75
2023-11-19T22:53:35.504Z,99200.34
2023-11-19T22:57:59.752Z,99203.26
2023-11-19T23:02:02.213Z,99194.23
2023-11-19T23:06:05.907Z,99185.25
2023-11-19T23:14:16.175Z,99183.89
2023-11-19T23:18:19.800Z,99181.65
2023-11-19T23:26:30.464Z,99175.35
2023-11-19T23:30:37.218Z,99170.00
2023-11-19T23:38:46.734Z,99167.55
2023-11-19T23:42:50.066Z,99174.84
2023-11-19T23:46:53.476Z,99177.16
2023-11-19T23:51:00.428Z,99171.52
2023-11-19T23:55:04.418Z,99169.98
2023-11-19T23:59:08.908Z,99162.20
